createdAt,value
2022-08-03T00:05:37.379Z,20.38
2022-08-03T00:11:24.491Z,20.40
2022-08-03T00:17:11.441Z,20.40
2022-08-03T00:22:58.380Z,20.30
2022-08-03T00:28:45.106Z,20.38
2022-08-03T00:34:57.946Z,20.28
2022-08-03T00:40:39.330Z,20.35
2022-08-03T00:46:26.188Z,20.19
2022-08-03T00:52:14.021Z,20.16
2022-08-03T00:58:05.012Z,20.05
2022-08-03T01:03:51.838Z,19.92
2022-08-03T01:09:48.951Z,19.84
2022-08-03T01:15:45.811Z,19.87
2022-08-03T01:21:40.500Z,19.83
2022-08-03T01:28:05.222Z,19.81
2022-08-03T01:34:00.375Z,19.72
2022-08-03T01:39:49.131Z,19.72
2022-08-03T01:45:37.387Z,19.61
2022-08-03T01:51:24.279Z,19.51
2022-08-03T01:57:31.337Z,19.42
2022-08-03T02:03:20.203Z,19.39
2022-08-03T02:09:08.109Z,19.46
2022-08-03T02:14:57.031Z,19.53
2022-08-03T02:20:47.714Z,19.45
2022-08-03T02:26:38.514Z,19.49
2022-08-03T02:32:31.397Z,19.65
2022-08-03T02:38:21.229Z,19.80
2022-08-03T02:44:10.956Z,19.83
2022-08-03T02:49:59.884Z,19.82
2022-08-03T02:55:47.645Z,19.85
2022-08-03T03:01:34.394Z,19.91
2022-08-03T03:07:21.627Z,19.90
2022-08-03T03:13:09.689Z,19.89
2022-08-03T03:18:58.518Z,19.76
2022-08-03T03:24:47.357Z,19.89
2022-08-03T03:30:34.785Z,19.90
2022-08-03T03:36:21.653Z,19.97
2022-08-03T03:42:08.560Z,20.03
2022-08-03T03:47:55.330Z,20.05
2022-08-03T03:53:54.726Z,20.19
2022-08-03T03:59:43.609Z,19.95
2022-08-03T04:05:48.982Z,20.06
2022-08-03T04:11:43.747Z,20.02
2022-08-03T04:17:31.769Z,20.04
2022-08-03T04:23:22.361Z,20.01
2022-08-03T04:29:11.493Z,20.02
2022-08-03T04:34:58.390Z,20.13
2022-08-03T04:40:46.692Z,20.02
2022-08-03T04:46:37.058Z,20.09
2022-08-03T04:52:24.440Z,20.02
2022-08-03T04:58:12.610Z,20.09
2022-08-03T05:03:59.580Z,20.09
2022-08-03T05:09:50.620Z,20.09
2022-08-03T05:15:43.135Z,19.97
2022-08-03T05:21:41.663Z,20.14
2022-08-03T05:27:36.970Z,20.11
2022-08-03T05:33:23.718Z,20.10
2022-08-03T05:39:10.548Z,20.15
2022-08-03T05:44:57.391Z,20.19
2022-08-03T05:50:44.782Z,20.26
2022-08-03T05:56:31.880Z,20.44
2022-08-03T06:02:18.900Z,20.54
2022-08-03T06:08:06.062Z,20.66
2022-08-03T06:13:52.938Z,20.61
2022-08-03T06:19:40.031Z,20.77
2022-08-03T06:25:27.666Z,20.97
2022-08-03T06:31:14.562Z,21.00
2022-08-03T06:37:02.287Z,20.99
2022-08-03T06:42:53.496Z,20.99
2022-08-03T06:48:41.922Z,20.93
2022-08-03T06:54:30.203Z,20.94
2022-08-03T07:00:20.269Z,21.10
2022-08-03T07:06:07.690Z,21.20
2022-08-03T07:11:55.351Z,21.24
2022-08-03T07:17:42.192Z,21.36
2022-08-03T07:23:28.913Z,21.46
2022-08-03T07:29:18.177Z,21.82
2022-08-03T07:35:08.768Z,21.60
2022-08-03T07:41:11.068Z,21.50
2022-08-03T07:46:58.009Z,21.58
2022-08-03T07:52:47.982Z,21.51
2022-08-03T07:58:36.430Z,21.63
2022-08-03T08:04:23.834Z,21.66
2022-08-03T08:10:11.315Z,22.06
2022-08-03T08:15:58.213Z,22.17
2022-08-03T08:21:53.412Z,22.17
2022-08-03T08:28:29.459Z,22.23
2022-08-03T08:34:04.639Z,22.39
2022-08-03T08:39:59.536Z,22.33
2022-08-03T08:45:52.131Z,22.46
2022-08-03T08:51:54.501Z,22.45
2022-08-03T08:58:01.633Z,22.78
2022-08-03T09:03:49.766Z,22.82
2022-08-03T09:10:11.872Z,22.75
2022-08-03T09:16:00.615Z,23.04
2022-08-03T09:22:17.626Z,23.24
2022-08-03T09:28:11.269Z,23.42
2022-08-03T09:34:01.297Z,23.77
2022-08-03T09:39:48.134Z,23.72
2022-08-03T09:45:36.853Z,23.98
2022-08-03T09:51:33.263Z,24.42
2022-08-03T09:57:31.924Z,25.09
2022-08-03T10:09:09.657Z,26.09
2022-08-03T10:14:56.478Z,26.13
2022-08-03T10:20:54.541Z,26.51
2022-08-03T10:26:49.590Z,27.21
2022-08-03T10:32:57.529Z,27.49
2022-08-03T10:38:52.991Z,28.05
2022-08-03T10:44:42.391Z,28.38
2022-08-03T10:50:29.533Z,27.44
2022-08-03T10:56:54.670Z,27.37
2022-08-03T11:03:11.563Z,27.50
2022-08-03T11:09:10.901Z,28.51
2022-08-03T11:15:03.613Z,28.76
2022-08-03T11:20:50.378Z,28.75
2022-08-03T11:26:37.193Z,28.69
2022-08-03T11:32:46.846Z,28.68
2022-08-03T11:38:35.464Z,27.89
2022-08-03T11:44:41.544Z,27.46
2022-08-03T11:50:38.152Z,27.79
2022-08-03T11:56:25.694Z,28.45
2022-08-03T12:02:23.573Z,28.23
2022-08-03T12:08:33.088Z,28.03
2022-08-03T12:14:50.547Z,28.36
2022-08-03T12:20:35.220Z,28.46
2022-08-03T12:26:22.252Z,28.54
2022-08-03T12:32:14.793Z,28.75
2022-08-03T12:38:07.692Z,29.08
2022-08-03T12:43:55.176Z,28.90
2022-08-03T12:49:46.673Z,28.72
2022-08-03T12:55:57.901Z,28.87
2022-08-03T13:01:54.809Z,28.94
2022-08-03T13:07:54.541Z,29.40
2022-08-03T13:13:41.529Z,29.40
2022-08-03T13:19:28.493Z,29.37
2022-08-03T13:25:15.395Z,29.53
2022-08-03T13:31:02.523Z,29.81
2022-08-03T13:37:08.359Z,29.96
2022-08-03T13:42:56.455Z,29.59
2022-08-03T13:48:43.353Z,29.11
2022-08-03T13:54:30.826Z,29.18
2022-08-03T14:00:26.632Z,29.21
2022-08-03T14:06:16.032Z,29.12
2022-08-03T14:12:07.226Z,29.26
2022-08-03T14:17:58.793Z,29.16
2022-08-03T14:23:45.811Z,28.78
2022-08-03T14:29:32.671Z,28.74
2022-08-03T14:35:19.446Z,29.02
2022-08-03T14:41:12.068Z,28.87
2022-08-03T14:47:06.754Z,28.47
2022-08-03T14:52:53.796Z,28.46
2022-08-03T14:58:40.727Z,27.93
2022-08-03T15:04:30.055Z,28.04
2022-08-03T15:10:17.461Z,28.08
2022-08-03T15:16:04.702Z,28.37
2022-08-03T15:21:51.533Z,28.24
2022-08-03T15:28:03.941Z,28.40
2022-08-03T15:33:46.150Z,28.33
2022-08-03T15:39:33.358Z,28.51
2022-08-03T15:45:42.042Z,28.42
2022-08-03T15:51:28.887Z,28.17
2022-08-03T15:57:15.557Z,28.12
2022-08-03T16:03:02.429Z,27.87
2022-08-03T16:08:49.180Z,27.91
2022-08-03T16:14:46.848Z,28.03
2022-08-03T16:20:38.531Z,28.40
2022-08-03T16:26:28.656Z,28.43
2022-08-03T16:32:18.824Z,28.45
2022-08-03T16:38:09.757Z,28.27
2022-08-03T16:43:57.169Z,28.00
2022-08-03T16:49:55.210Z,28.35
2022-08-03T16:55:53.676Z,28.63
2022-08-03T17:01:41.281Z,28.35
2022-08-03T17:07:30.706Z,28.37
2022-08-03T17:13:22.984Z,28.25
2022-08-03T17:19:28.887Z,28.25
2022-08-03T17:25:21.763Z,28.09
2022-08-03T17:31:31.826Z,28.10
2022-08-03T17:37:50.577Z,27.71
2022-08-03T17:44:13.761Z,27.48
2022-08-03T17:49:40.013Z,27.35
2022-08-03T17:55:56.382Z,27.33
2022-08-03T18:02:12.208Z,27.25
2022-08-03T18:08:11.682Z,26.88
2022-08-03T18:14:20.637Z,26.94
2022-08-03T18:20:34.341Z,26.75
2022-08-03T18:26:20.934Z,26.82
2022-08-03T18:32:13.705Z,26.52
2022-08-03T18:38:05.976Z,26.37
2022-08-03T18:44:06.999Z,26.10
2022-08-03T18:50:26.354Z,26.19
2022-08-03T18:56:22.267Z,26.27
2022-08-03T19:02:32.196Z,26.16
2022-08-03T19:08:36.970Z,26.01
2022-08-03T19:14:34.866Z,25.87
2022-08-03T19:20:26.562Z,25.95
2022-08-03T19:26:29.878Z,25.78
2022-08-03T19:32:23.811Z,25.62
2022-08-03T19:38:11.461Z,25.72
2022-08-03T19:44:01.816Z,25.75
2022-08-03T19:50:05.736Z,25.48
2022-08-03T19:55:59.665Z,25.37
2022-08-03T20:01:50.247Z,25.27
2022-08-03T20:07:38.814Z,25.32
2022-08-03T20:13:28.342Z,24.87
2022-08-03T20:19:21.727Z,24.92
2022-08-03T20:25:11.415Z,24.85
2022-08-03T20:31:03.710Z,24.65
2022-08-03T20:36:55.360Z,24.61
2022-08-03T20:42:42.531Z,24.54
2022-08-03T20:48:36.076Z,24.47
2022-08-03T20:54:31.576Z,24.41
2022-08-03T21:00:27.111Z,24.32
2022-08-03T21:06:27.721Z,24.20
2022-08-03T21:12:27.462Z,24.28
2022-08-03T21:18:21.179Z,24.16
2022-08-03T21:24:12.879Z,24.17
2022-08-03T21:30:06.953Z,23.97
2022-08-03T21:35:59.212Z,23.91
2022-08-03T21:41:48.564Z,23.82
2022-08-03T21:47:56.142Z,23.68
2022-08-03T21:54:04.347Z,23.54
2022-08-03T21:59:56.589Z,23.30
2022-08-03T22:05:49.666Z,23.24
2022-08-03T22:11:37.616Z,23.23
2022-08-03T22:17:54.185Z,23.30
2022-08-03T22:23:44.554Z,23.14
2022-08-03T22:29:34.304Z,23.17
2022-08-03T22:35:24.238Z,23.13
2022-08-03T22:41:11.540Z,23.11
2022-08-03T22:47:01.113Z,23.06
2022-08-03T22:52:48.025Z,22.96
2022-08-03T22:58:40.573Z,22.68
2022-08-03T23:04:29.197Z,22.60
2022-08-03T23:10:16.292Z,22.52
2022-08-03T23:16:12.259Z,22.47
2022-08-03T23:22:04.057Z,22.29
2022-08-03T23:28:05.026Z,22.00
2022-08-03T23:34:17.257Z,22.21
2022-08-03T23:40:09.963Z,22.25
2022-08-03T23:46:00.818Z,22.43
2022-08-03T23:52:01.886Z,22.40
2022-08-03T23:58:17.746Z,22.18
